createdAt,value
2018-03-21T00:00:08.538Z,12.30
2018-03-21T00:01:08.449Z,12.40
2018-03-21T00:02:08.363Z,12.70
2018-03-21T00:03:08.272Z,12.20
2018-03-21T00:04:08.186Z,13.50
2018-03-21T00:05:08.097Z,13.40
2018-03-21T00:06:08.008Z,12.70
2018-03-21T00:07:07.957Z,11.70
2018-03-21T00:08:07.833Z,9.60
2018-03-21T00:09:07.745Z,11.10
2018-03-21T00:10:07.658Z,9.40
2018-03-21T00:11:07.568Z,11.30
2018-03-21T00:12:07.481Z,12.20
2018-03-21T00:13:07.393Z,19.30
2018-03-21T00:14:07.305Z,14.30
2018-03-21T00:15:07.215Z,11.40
2018-03-21T00:16:07.133Z,15.10
2018-03-21T00:17:07.040Z,16.40
2018-03-21T00:18:06.951Z,17.20
2018-03-21T00:19:06.900Z,14.60
2018-03-21T00:20:06.775Z,14.90
2018-03-21T00:21:06.687Z,13.40
2018-03-21T00:22:06.598Z,11.50
2018-03-21T00:23:06.509Z,12.80
2018-03-21T00:24:06.422Z,13.50
2018-03-21T00:25:06.332Z,12.10
2018-03-21T00:26:06.248Z,12.70
2018-03-21T00:27:06.156Z,13.20
2018-03-21T00:28:06.068Z,13.70
2018-03-21T00:29:05.983Z,11.10
2018-03-21T00:30:05.890Z,13.60
2018-03-21T00:31:05.803Z,10.60
2018-03-21T00:32:05.715Z,10.10
2018-03-21T00:33:05.629Z,13.40
2018-03-21T00:34:05.544Z,9.80
2018-03-21T00:35:05.453Z,11.60
2018-03-21T00:36:05.363Z,11.80
2018-03-21T00:37:05.273Z,11.90
2018-03-21T00:38:05.184Z,11.40
2018-03-21T00:39:05.096Z,11.80
2018-03-21T00:40:05.007Z,12.00
2018-03-21T00:41:04.922Z,11.70
2018-03-21T00:42:04.829Z,13.10
2018-03-21T00:43:04.741Z,14.00
2018-03-21T00:44:04.653Z,10.70
2018-03-21T00:45:04.565Z,9.60
2018-03-21T00:46:04.475Z,12.60
2018-03-21T00:47:04.387Z,10.30
2018-03-21T00:48:04.299Z,14.80
2018-03-21T00:49:04.211Z,11.80
2018-03-21T00:50:04.122Z,14.20
2018-03-21T00:51:04.033Z,11.60
2018-03-21T00:52:03.944Z,12.90
2018-03-21T00:53:03.857Z,10.20
2018-03-21T00:54:03.771Z,13.00
2018-03-21T00:55:03.679Z,12.20
2018-03-21T00:56:03.590Z,12.30
2018-03-21T00:57:03.502Z,12.90
2018-03-21T00:58:03.413Z,11.30
2018-03-21T00:59:03.324Z,13.60
2018-03-21T01:00:03.236Z,12.70
2018-03-21T01:01:03.148Z,10.20
2018-03-21T01:02:03.058Z,14.60
2018-03-21T01:03:02.970Z,12.90
2018-03-21T01:04:02.882Z,12.60
2018-03-21T01:05:02.793Z,14.80
2018-03-21T01:06:02.706Z,13.70
2018-03-21T01:07:02.615Z,17.60
2018-03-21T01:08:02.528Z,16.30
2018-03-21T01:09:02.439Z,16.90
2018-03-21T01:10:02.350Z,17.20
2018-03-21T01:11:02.262Z,15.60
2018-03-21T01:12:02.173Z,13.70
2018-03-21T01:13:02.085Z,13.50
2018-03-21T01:14:01.995Z,14.40
2018-03-21T01:15:01.908Z,15.70
2018-03-21T01:16:01.819Z,14.60
2018-03-21T01:17:01.732Z,15.10
2018-03-21T01:18:01.642Z,13.70
2018-03-21T01:19:01.553Z,14.50
2018-03-21T01:20:01.465Z,15.10
2018-03-21T01:21:01.382Z,15.20
2018-03-21T01:22:01.291Z,15.20
2018-03-21T01:23:01.200Z,15.70
2018-03-21T01:24:01.111Z,16.30
2018-03-21T01:25:01.023Z,16.80
2018-03-21T01:26:00.933Z,15.90
2018-03-21T01:27:00.845Z,15.60
2018-03-21T01:28:00.757Z,15.70
2018-03-21T01:29:00.671Z,17.00
2018-03-21T01:30:00.579Z,21.30
2018-03-21T01:31:00.491Z,18.20
2018-03-21T01:32:00.409Z,19.20
2018-03-21T01:33:00.314Z,17.60
2018-03-21T01:34:00.225Z,17.00
2018-03-21T01:35:00.137Z,19.60
2018-03-21T01:36:00.049Z,16.40
2018-03-21T01:36:59.960Z,17.90
2018-03-21T01:37:59.871Z,21.20
2018-03-21T01:38:59.784Z,19.80
2018-03-21T01:39:59.696Z,19.20
2018-03-21T01:40:59.606Z,17.80
2018-03-21T01:41:59.517Z,15.70
2018-03-21T01:42:59.428Z,15.90
2018-03-21T01:43:59.341Z,17.10
2018-03-21T01:44:59.253Z,18.40
2018-03-21T01:45:59.164Z,16.70
2018-03-21T01:46:59.078Z,19.20
2018-03-21T01:47:58.987Z,16.30
2018-03-21T01:48:58.898Z,20.80
2018-03-21T01:49:58.809Z,18.70
2018-03-21T01:50:58.721Z,18.80
2018-03-21T01:51:58.632Z,24.10
2018-03-21T01:52:58.545Z,19.60
2018-03-21T01:53:58.455Z,18.80
2018-03-21T01:54:58.367Z,19.40
2018-03-21T01:55:58.286Z,19.30
2018-03-21T01:56:58.190Z,21.90
2018-03-21T01:57:58.101Z,20.30
2018-03-21T01:58:58.012Z,21.20
2018-03-21T01:59:57.924Z,20.60
2018-03-21T02:00:57.835Z,19.90
2018-03-21T02:01:57.746Z,19.60
2018-03-21T02:02:57.661Z,18.30
2018-03-21T02:03:57.570Z,20.70
2018-03-21T02:04:57.480Z,18.80
2018-03-21T02:05:57.397Z,19.90
2018-03-21T02:06:57.305Z,18.80
2018-03-21T02:07:57.216Z,18.90
2018-03-21T02:08:57.133Z,21.20
2018-03-21T02:09:57.039Z,19.90
2018-03-21T02:10:56.955Z,21.40
2018-03-21T02:11:56.861Z,19.70
2018-03-21T02:12:56.772Z,18.90
2018-03-21T02:13:56.683Z,21.50
2018-03-21T02:14:56.594Z,20.80
2018-03-21T02:15:56.505Z,21.80
2018-03-21T02:16:56.417Z,22.30
2018-03-21T02:17:56.330Z,19.10
2018-03-21T02:18:56.240Z,21.00
2018-03-21T02:19:56.150Z,19.90
2018-03-21T02:20:56.063Z,18.80
2018-03-21T02:21:55.976Z,19.80
2018-03-21T02:22:55.892Z,21.30
2018-03-21T02:23:55.796Z,21.20
2018-03-21T02:24:55.708Z,18.60
2018-03-21T02:25:55.619Z,25.00
2018-03-21T02:26:55.529Z,21.40
2018-03-21T02:27:55.442Z,18.50
2018-03-21T02:28:55.353Z,19.10
2018-03-21T02:29:55.267Z,19.50
2018-03-21T02:30:55.175Z,21.50
2018-03-21T02:31:55.088Z,24.30
2018-03-21T02:32:54.999Z,21.30
2018-03-21T02:33:54.909Z,21.70
2018-03-21T02:34:54.822Z,23.10
2018-03-21T02:35:54.733Z,19.60
2018-03-21T02:36:54.645Z,26.10
2018-03-21T02:37:54.556Z,23.40
2018-03-21T02:38:54.469Z,23.30
2018-03-21T02:39:54.377Z,20.70
2018-03-21T02:40:54.289Z,21.70
2018-03-21T02:41:54.200Z,22.10
2018-03-21T02:42:54.113Z,20.50
2018-03-21T02:43:54.026Z,26.20
2018-03-21T02:44:53.935Z,23.80
2018-03-21T02:45:53.846Z,21.20
2018-03-21T02:46:53.757Z,21.80
2018-03-21T02:47:53.668Z,20.50
2018-03-21T02:48:53.581Z,24.20
2018-03-21T02:49:53.490Z,25.50
2018-03-21T02:50:53.402Z,18.10
2018-03-21T02:51:53.314Z,20.90
2018-03-21T02:52:53.226Z,20.30
2018-03-21T02:53:53.137Z,20.10
2018-03-21T02:54:53.049Z,20.10
2018-03-21T02:55:52.961Z,19.80
2018-03-21T02:56:52.876Z,22.50
2018-03-21T02:57:52.781Z,18.50
2018-03-21T02:58:52.694Z,21.20
2018-03-21T02:59:52.955Z,18.70
2018-03-21T03:00:52.515Z,15.10
2018-03-21T03:01:52.440Z,18.90
2018-03-21T03:02:52.339Z,18.10
2018-03-21T03:03:52.249Z,18.30
2018-03-21T03:04:52.161Z,18.50
2018-03-21T03:05:52.072Z,21.40
2018-03-21T03:06:51.983Z,20.70
2018-03-21T03:07:51.895Z,19.00
2018-03-21T03:08:51.805Z,20.10
2018-03-21T03:09:51.716Z,23.00
2018-03-21T03:10:51.627Z,22.40
2018-03-21T03:11:51.541Z,18.30
2018-03-21T03:12:51.450Z,22.40
2018-03-21T03:13:51.368Z,21.10
2018-03-21T03:14:51.271Z,21.20
2018-03-21T03:15:51.183Z,18.00
2018-03-21T03:16:51.095Z,16.90
2018-03-21T03:17:51.004Z,18.20
2018-03-21T03:18:50.916Z,16.60
2018-03-21T03:19:50.829Z,17.40
2018-03-21T03:20:50.739Z,16.10
2018-03-21T03:21:50.648Z,16.50
2018-03-21T03:22:50.559Z,18.70
2018-03-21T03:23:50.498Z,17.60
2018-03-21T03:24:50.382Z,17.30
2018-03-21T03:25:50.292Z,17.20
2018-03-21T03:26:50.202Z,19.50
2018-03-21T03:27:50.114Z,18.00
2018-03-21T03:28:50.026Z,16.70
2018-03-21T03:29:49.935Z,19.80
2018-03-21T03:30:49.849Z,17.80
2018-03-21T03:31:49.758Z,16.90
2018-03-21T03:32:49.669Z,16.80
2018-03-21T03:33:49.579Z,19.80
2018-03-21T03:34:49.489Z,17.20
2018-03-21T03:35:49.401Z,18.60
2018-03-21T03:36:49.311Z,18.60
2018-03-21T03:37:49.228Z,26.00
2018-03-21T03:38:49.135Z,19.40
2018-03-21T03:39:49.044Z,18.00
2018-03-21T03:40:48.956Z,17.80
2018-03-21T03:41:48.865Z,19.20
2018-03-21T03:42:48.783Z,15.10
2018-03-21T03:43:48.686Z,21.10
2018-03-21T03:44:48.598Z,18.80
2018-03-21T03:45:48.508Z,17.70
2018-03-21T03:46:48.419Z,18.70
2018-03-21T03:47:48.329Z,19.30
2018-03-21T03:48:48.240Z,18.00
2018-03-21T03:49:48.150Z,15.00
2018-03-21T03:50:48.060Z,18.30
2018-03-21T03:51:47.972Z,14.70
2018-03-21T03:52:47.883Z,14.30
2018-03-21T03:53:47.792Z,14.90
2018-03-21T03:54:47.704Z,13.80
2018-03-21T03:55:47.614Z,15.70
2018-03-21T03:56:47.525Z,14.80
2018-03-21T03:57:47.435Z,15.20
2018-03-21T03:58:47.345Z,13.20
2018-03-21T03:59:47.257Z,13.90
2018-03-21T04:00:47.168Z,13.30
2018-03-21T04:01:47.077Z,13.90
2018-03-21T04:02:46.996Z,13.30
2018-03-21T04:03:46.901Z,13.50
2018-03-21T04:04:46.809Z,12.90
2018-03-21T04:05:46.720Z,9.90
2018-03-21T04:06:46.631Z,12.10
2018-03-21T04:07:46.542Z,14.00
2018-03-21T04:08:46.452Z,12.40
2018-03-21T04:09:46.362Z,11.60
2018-03-21T04:10:46.272Z,12.20
2018-03-21T04:11:46.184Z,9.90
2018-03-21T04:12:46.095Z,11.10
2018-03-21T04:13:46.005Z,9.60
2018-03-21T04:14:45.915Z,10.60
2018-03-21T04:15:45.826Z,10.60
2018-03-21T04:16:45.737Z,10.10
2018-03-21T04:17:45.647Z,11.20
2018-03-21T04:18:45.557Z,11.40
2018-03-21T04:19:45.468Z,10.70
2018-03-21T04:20:45.379Z,13.80
2018-03-21T04:21:45.288Z,10.60
2018-03-21T04:22:45.200Z,10.90
2018-03-21T04:23:45.110Z,10.20
2018-03-21T04:24:45.020Z,11.90
2018-03-21T04:25:44.930Z,9.70
2018-03-21T04:26:44.842Z,11.90
2018-03-21T04:27:44.752Z,14.40
2018-03-21T04:28:44.662Z,12.00
2018-03-21T04:29:44.572Z,10.20
2018-03-21T04:30:44.483Z,12.50
2018-03-21T04:31:44.394Z,10.80
2018-03-21T04:32:44.304Z,12.00
2018-03-21T04:33:44.214Z,14.00
2018-03-21T04:34:44.127Z,11.50
2018-03-21T04:35:44.035Z,11.80
2018-03-21T04:36:43.946Z,13.10
2018-03-21T04:37:43.856Z,12.00
2018-03-21T04:38:43.767Z,12.80
2018-03-21T04:39:43.676Z,14.80
2018-03-21T04:40:43.588Z,15.40
2018-03-21T04:41:43.497Z,12.50
2018-03-21T04:42:43.408Z,17.00
2018-03-21T04:43:43.318Z,16.20
2018-03-21T04:44:43.229Z,17.90
2018-03-21T04:45:43.139Z,12.80
2018-03-21T04:46:43.050Z,13.70
2018-03-21T04:47:42.960Z,17.00
2018-03-21T04:48:42.871Z,15.30
2018-03-21T04:49:42.781Z,15.90
2018-03-21T04:50:42.691Z,16.50
2018-03-21T04:51:42.602Z,21.30
2018-03-21T04:52:42.512Z,19.70
2018-03-21T04:53:42.422Z,17.90
2018-03-21T04:54:42.332Z,18.30
2018-03-21T04:55:42.244Z,20.90
2018-03-21T04:56:42.158Z,19.70
2018-03-21T04:57:42.064Z,19.80
2018-03-21T04:58:41.975Z,18.80
2018-03-21T04:59:41.886Z,19.90
2018-03-21T05:00:41.797Z,19.20
2018-03-21T05:01:41.711Z,19.70
2018-03-21T05:02:41.617Z,20.10
2018-03-21T05:03:41.527Z,19.40
2018-03-21T05:04:41.439Z,20.60
2018-03-21T05:05:41.350Z,21.60
2018-03-21T05:06:41.259Z,20.10
2018-03-21T05:07:41.170Z,21.30
2018-03-21T05:08:41.081Z,20.60
2018-03-21T05:09:40.996Z,21.00
2018-03-21T05:10:40.900Z,21.30
2018-03-21T05:11:40.811Z,17.80
2018-03-21T05:12:40.721Z,19.50
2018-03-21T05:13:40.634Z,20.10
2018-03-21T05:14:40.543Z,21.30
2018-03-21T05:15:40.454Z,21.70
2018-03-21T05:16:40.364Z,20.60
2018-03-21T05:17:40.272Z,20.30
2018-03-21T05:18:40.183Z,23.00
2018-03-21T05:19:40.094Z,20.60
2018-03-21T05:20:40.005Z,23.60
2018-03-21T05:21:39.915Z,22.70
2018-03-21T05:22:39.826Z,18.70
2018-03-21T05:23:39.736Z,17.50
2018-03-21T05:24:39.647Z,20.30
2018-03-21T05:25:39.554Z,22.00
2018-03-21T05:26:39.465Z,25.10
2018-03-21T05:27:39.376Z,20.20
2018-03-21T05:28:39.287Z,21.70
2018-03-21T05:29:39.197Z,23.40
2018-03-21T05:30:39.107Z,22.60
2018-03-21T05:31:39.017Z,23.20
2018-03-21T05:32:38.929Z,21.10
2018-03-21T05:33:38.839Z,20.70
2018-03-21T05:34:38.749Z,21.10
2018-03-21T05:35:38.659Z,20.70
2018-03-21T05:36:38.573Z,19.60
2018-03-21T05:37:38.480Z,19.20
2018-03-21T05:38:38.390Z,22.10
2018-03-21T05:39:38.301Z,22.00
2018-03-21T05:40:38.212Z,24.50
2018-03-21T05:41:38.122Z,22.00
2018-03-21T05:42:38.033Z,21.30
2018-03-21T05:43:37.945Z,22.20
2018-03-21T05:44:37.854Z,22.00
2018-03-21T05:45:37.766Z,22.50
2018-03-21T05:46:37.675Z,21.30
2018-03-21T05:47:37.585Z,19.50
2018-03-21T05:48:37.496Z,19.20
2018-03-21T05:49:37.406Z,25.30
2018-03-21T05:50:37.315Z,21.70
2018-03-21T05:51:37.228Z,21.40
2018-03-21T05:52:37.136Z,23.30
2018-03-21T05:53:37.048Z,22.10
2018-03-21T05:54:36.963Z,21.60
2018-03-21T05:55:36.869Z,23.70
2018-03-21T05:56:36.780Z,22.00
2018-03-21T05:57:36.692Z,25.30
2018-03-21T05:58:36.600Z,21.40
2018-03-21T05:59:36.511Z,21.20
2018-03-21T06:00:36.421Z,21.40
2018-03-21T06:01:36.332Z,22.40
2018-03-21T06:02:36.243Z,21.10
2018-03-21T06:03:36.155Z,20.70
2018-03-21T06:04:36.064Z,19.60
2018-03-21T06:05:35.973Z,20.60
2018-03-21T06:06:35.884Z,20.50
2018-03-21T06:07:35.795Z,21.90
2018-03-21T06:08:35.706Z,19.30
2018-03-21T06:09:35.617Z,19.30
2018-03-21T06:10:35.528Z,20.40
2018-03-21T06:11:35.437Z,21.60
2018-03-21T06:12:35.348Z,23.20
2018-03-21T06:13:35.259Z,20.10
2018-03-21T06:14:35.168Z,24.00
2018-03-21T06:15:35.079Z,24.10
2018-03-21T06:16:34.989Z,21.70
2018-03-21T06:17:34.900Z,19.40
2018-03-21T06:18:34.810Z,20.30
2018-03-21T06:19:34.722Z,20.60
2018-03-21T06:20:34.633Z,21.20
2018-03-21T06:21:34.543Z,21.30
2018-03-21T06:22:34.453Z,18.10
2018-03-21T06:23:34.365Z,20.30
2018-03-21T06:24:34.274Z,18.00
2018-03-21T06:25:34.185Z,21.00
2018-03-21T06:26:34.095Z,19.60
2018-03-21T06:27:34.006Z,21.20
2018-03-21T06:28:33.919Z,21.60
2018-03-21T06:29:33.827Z,21.10
2018-03-21T06:30:33.740Z,21.60
2018-03-21T06:31:33.649Z,21.40
2018-03-21T06:32:33.561Z,19.20
2018-03-21T06:33:33.470Z,19.70
2018-03-21T06:34:33.381Z,21.20
2018-03-21T06:35:33.298Z,22.80
2018-03-21T06:36:33.203Z,20.50
2018-03-21T06:37:33.114Z,19.20
2018-03-21T06:38:33.024Z,20.00
2018-03-21T06:39:32.934Z,17.10
2018-03-21T06:40:32.849Z,17.80
2018-03-21T06:41:32.756Z,19.10
2018-03-21T06:42:32.667Z,20.30
2018-03-21T06:43:32.585Z,19.60
2018-03-21T06:44:32.489Z,19.50
2018-03-21T06:45:32.398Z,21.40
2018-03-21T06:46:32.311Z,21.60
2018-03-21T06:47:32.221Z,23.30
2018-03-21T06:48:32.132Z,20.30
2018-03-21T06:49:32.043Z,22.20
2018-03-21T06:50:31.955Z,22.40
2018-03-21T06:51:31.865Z,20.30
2018-03-21T06:52:31.776Z,18.10
2018-03-21T06:53:31.690Z,19.90
2018-03-21T06:54:31.604Z,18.30
2018-03-21T06:55:31.511Z,17.60
2018-03-21T06:56:31.497Z,19.50
2018-03-21T06:57:31.333Z,19.40
2018-03-21T06:58:31.244Z,18.60
2018-03-21T06:59:31.155Z,14.60
2018-03-21T07:00:31.067Z,22.60
2018-03-21T07:01:30.977Z,18.00
2018-03-21T07:02:30.931Z,16.90
2018-03-21T07:03:30.801Z,17.50
2018-03-21T07:04:30.712Z,16.10
2018-03-21T07:05:30.623Z,15.90
2018-03-21T07:06:30.534Z,14.80
2018-03-21T07:07:30.446Z,14.00
2018-03-21T07:08:30.359Z,14.60
2018-03-21T07:09:30.269Z,16.10
2018-03-21T07:10:30.182Z,17.60
2018-03-21T07:11:30.094Z,16.50
2018-03-21T07:12:30.007Z,18.80
2018-03-21T07:13:29.917Z,17.00
2018-03-21T07:14:29.829Z,19.20
2018-03-21T07:15:29.794Z,18.20
2018-03-21T07:16:29.654Z,19.20
2018-03-21T07:17:29.593Z,17.70
2018-03-21T07:18:29.478Z,15.90
2018-03-21T07:19:29.391Z,15.60
2018-03-21T07:20:29.312Z,20.90
2018-03-21T07:21:29.215Z,18.90
2018-03-21T07:22:29.128Z,16.90
2018-03-21T07:23:29.041Z,19.80
2018-03-21T07:24:28.954Z,17.70
2018-03-21T07:25:28.866Z,20.20
2018-03-21T07:26:28.779Z,20.30
2018-03-21T07:27:28.692Z,17.00
2018-03-21T07:28:28.606Z,19.00
2018-03-21T07:29:28.518Z,16.90
2018-03-21T07:30:28.431Z,17.70
2018-03-21T07:31:28.344Z,18.20
2018-03-21T07:32:28.264Z,16.90
2018-03-21T07:33:28.170Z,19.50
2018-03-21T07:34:28.085Z,17.40
2018-03-21T07:35:27.998Z,17.50
2018-03-21T07:36:27.913Z,18.00
2018-03-21T07:37:27.822Z,17.70
2018-03-21T07:38:27.737Z,21.00
2018-03-21T07:39:27.651Z,16.10
2018-03-21T07:40:27.565Z,17.10
2018-03-21T07:41:27.518Z,16.10
2018-03-21T07:42:27.392Z,15.90
2018-03-21T07:43:27.306Z,15.70
2018-03-21T07:44:27.222Z,15.40
2018-03-21T07:45:27.131Z,18.10
2018-03-21T07:46:27.045Z,17.50
2018-03-21T07:47:26.960Z,18.30
2018-03-21T07:48:26.874Z,17.80
2018-03-21T07:49:26.787Z,19.40
2018-03-21T07:50:26.701Z,16.20
2018-03-21T07:51:26.621Z,16.60
2018-03-21T07:52:26.532Z,15.20
2018-03-21T07:53:26.443Z,19.50
2018-03-21T07:54:26.357Z,16.00
2018-03-21T07:55:26.272Z,16.00
2018-03-21T07:56:26.187Z,15.00
2018-03-21T07:57:26.101Z,15.00
2018-03-21T07:58:26.014Z,16.40
2018-03-21T07:59:25.930Z,16.90
2018-03-21T08:00:25.845Z,18.20
2018-03-21T08:01:25.758Z,16.50
2018-03-21T08:02:25.674Z,16.70
2018-03-21T08:03:25.588Z,17.30
2018-03-21T08:04:25.505Z,17.60
2018-03-21T08:05:25.419Z,18.00
2018-03-21T08:06:25.338Z,15.40
2018-03-21T08:07:25.247Z,15.00
2018-03-21T08:08:25.164Z,16.50
2018-03-21T08:09:25.077Z,14.90
2018-03-21T08:10:24.992Z,15.20
2018-03-21T08:11:24.907Z,15.40
2018-03-21T08:12:24.822Z,16.70
2018-03-21T08:13:24.738Z,14.70
2018-03-21T08:14:24.707Z,16.60
2018-03-21T08:15:24.567Z,16.50
2018-03-21T08:16:24.482Z,14.80
2018-03-21T08:17:24.396Z,14.10
2018-03-21T08:18:24.316Z,17.30
2018-03-21T08:19:24.228Z,14.70
2018-03-21T08:20:24.142Z,14.20
2018-03-21T08:21:24.073Z,15.30
2018-03-21T08:22:23.973Z,16.40
2018-03-21T08:23:23.891Z,14.70
2018-03-21T08:24:23.804Z,13.90
2018-03-21T08:25:23.718Z,14.80
2018-03-21T08:26:23.645Z,17.60
2018-03-21T08:27:23.550Z,13.60
2018-03-21T08:28:23.464Z,16.30
2018-03-21T08:29:23.380Z,15.20
2018-03-21T08:30:23.294Z,16.90
2018-03-21T08:31:23.210Z,14.30
2018-03-21T08:32:23.126Z,15.40
2018-03-21T08:33:23.043Z,15.30
2018-03-21T08:34:22.957Z,14.40
2018-03-21T08:35:22.871Z,14.40
2018-03-21T08:36:22.786Z,15.60
2018-03-21T08:37:22.701Z,14.10
2018-03-21T08:38:22.616Z,15.20
2018-03-21T08:39:22.532Z,14.20
2018-03-21T08:40:22.447Z,16.50
2018-03-21T08:41:22.367Z,15.90
2018-03-21T08:42:22.316Z,15.70
2018-03-21T08:43:22.193Z,15.90
2018-03-21T08:44:22.110Z,13.90
2018-03-21T08:45:22.024Z,15.20
2018-03-21T08:46:21.940Z,14.70
2018-03-21T08:47:21.856Z,14.30
2018-03-21T08:48:21.773Z,14.30
2018-03-21T08:49:21.687Z,16.60
2018-03-21T08:50:21.604Z,16.20
2018-03-21T08:51:21.519Z,18.50
2018-03-21T08:52:21.436Z,14.90
2018-03-21T08:53:21.351Z,15.50
2018-03-21T08:54:21.267Z,17.50
2018-03-21T08:55:21.183Z,16.60
2018-03-21T08:56:21.100Z,13.90
2018-03-21T08:57:21.015Z,18.70
2018-03-21T08:58:20.931Z,15.20
2018-03-21T08:59:20.847Z,15.70
2018-03-21T09:00:20.764Z,15.30
2018-03-21T09:01:20.683Z,16.60
2018-03-21T09:02:20.595Z,14.30
2018-03-21T09:03:20.512Z,14.40
2018-03-21T09:04:20.427Z,15.00
2018-03-21T09:05:20.345Z,15.20
2018-03-21T09:06:20.260Z,14.60
2018-03-21T09:07:20.176Z,15.00
2018-03-21T09:08:20.092Z,13.10
2018-03-21T09:09:20.010Z,14.80
2018-03-21T09:10:19.924Z,14.70
2018-03-21T09:11:19.840Z,16.20
2018-03-21T09:12:19.757Z,15.30
2018-03-21T09:13:19.672Z,14.10
2018-03-21T09:14:19.588Z,15.50
2018-03-21T09:15:19.505Z,17.90
2018-03-21T09:16:19.422Z,15.70
2018-03-21T09:17:19.336Z,14.30
2018-03-21T09:18:19.285Z,15.40
2018-03-21T09:19:19.170Z,14.30
2018-03-21T09:20:19.087Z,13.20
2018-03-21T09:21:19.002Z,13.00
2018-03-21T09:22:18.920Z,15.10
2018-03-21T09:23:18.835Z,14.00
2018-03-21T09:24:18.753Z,13.60
2018-03-21T09:25:18.669Z,13.30
2018-03-21T09:26:18.585Z,12.70
2018-03-21T09:27:18.502Z,12.70
2018-03-21T09:28:18.419Z,12.10
2018-03-21T09:29:18.335Z,14.80
2018-03-21T09:30:18.253Z,11.50
2018-03-21T09:31:18.168Z,12.90
2018-03-21T09:32:18.084Z,11.00
2018-03-21T09:33:18.002Z,15.40
2018-03-21T09:34:17.918Z,14.90
2018-03-21T09:35:17.835Z,11.80
2018-03-21T09:36:17.752Z,12.50
2018-03-21T09:37:17.668Z,14.40
2018-03-21T09:38:17.586Z,14.10
2018-03-21T09:39:17.502Z,11.60
2018-03-21T09:40:17.420Z,15.10
2018-03-21T09:41:17.347Z,13.60
2018-03-21T09:42:17.259Z,12.40
2018-03-21T09:43:17.171Z,10.60
2018-03-21T09:44:17.089Z,9.90
2018-03-21T09:45:17.004Z,10.70
2018-03-21T09:46:16.921Z,12.40
2018-03-21T09:47:16.837Z,9.90
2018-03-21T09:48:16.754Z,10.40
2018-03-21T09:49:16.821Z,8.70
2018-03-21T09:50:16.589Z,8.30
2018-03-21T09:51:16.504Z,7.40
2018-03-21T09:52:16.422Z,10.10
2018-03-21T09:53:16.339Z,10.30
2018-03-21T09:54:16.256Z,8.30
2018-03-21T09:55:16.222Z,13.60
2018-03-21T09:56:16.091Z,12.80
2018-03-21T09:57:16.008Z,11.70
2018-03-21T09:58:15.925Z,8.90
2018-03-21T09:59:15.842Z,10.50
2018-03-21T10:00:15.760Z,7.60
2018-03-21T10:01:15.677Z,6.60
2018-03-21T10:02:15.594Z,6.10
2018-03-21T10:03:15.511Z,7.80
2018-03-21T10:04:15.429Z,7.60
2018-03-21T10:05:15.345Z,7.60
2018-03-21T10:06:15.317Z,6.70
2018-03-21T10:07:15.181Z,6.70
2018-03-21T10:08:15.098Z,6.40
2018-03-21T10:09:15.014Z,6.70
2018-03-21T10:10:14.934Z,7.80
2018-03-21T10:11:14.851Z,7.00
2018-03-21T10:12:14.768Z,6.10
2018-03-21T10:13:14.685Z,6.60
2018-03-21T10:14:14.680Z,5.40
2018-03-21T10:15:14.521Z,5.20
2018-03-21T10:16:14.438Z,6.20
2018-03-21T10:17:14.355Z,5.10
2018-03-21T10:18:14.273Z,6.30
2018-03-21T10:19:14.191Z,5.90
2018-03-21T10:20:14.111Z,5.30
2018-03-21T10:21:14.028Z,5.50
2018-03-21T10:22:13.952Z,5.70
2018-03-21T10:23:13.864Z,4.10
2018-03-21T10:24:13.785Z,4.60
2018-03-21T10:25:13.703Z,6.60
2018-03-21T10:26:13.622Z,5.10
2018-03-21T10:27:13.541Z,6.90
2018-03-21T10:28:13.461Z,5.70
2018-03-21T10:29:13.380Z,6.00
2018-03-21T10:30:13.299Z,5.70
2018-03-21T10:31:13.219Z,5.60
2018-03-21T10:32:13.145Z,6.10
2018-03-21T10:33:13.067Z,5.40
2018-03-21T10:34:12.978Z,5.50
2018-03-21T10:35:12.900Z,6.20
2018-03-21T10:36:12.819Z,6.20
2018-03-21T10:37:12.749Z,6.20
2018-03-21T10:38:12.659Z,6.70
2018-03-21T10:39:12.580Z,6.80
2018-03-21T10:40:12.505Z,6.90
2018-03-21T10:41:12.422Z,7.20
2018-03-21T10:42:12.343Z,6.10
2018-03-21T10:43:12.265Z,5.90
2018-03-21T10:44:12.186Z,7.20
2018-03-21T10:45:12.108Z,7.20
2018-03-21T10:46:12.029Z,6.60
2018-03-21T10:47:11.957Z,6.00
2018-03-21T10:48:11.874Z,7.30
2018-03-21T10:49:11.793Z,7.30
2018-03-21T10:50:11.717Z,6.00
2018-03-21T10:51:11.638Z,6.00
2018-03-21T10:52:11.560Z,5.80
2018-03-21T10:53:11.481Z,6.60
2018-03-21T10:54:11.435Z,4.50
2018-03-21T10:55:11.325Z,6.10
2018-03-21T10:56:11.247Z,4.90
2018-03-21T10:57:11.168Z,6.10
2018-03-21T10:58:11.090Z,6.60
2018-03-21T10:59:11.050Z,6.90
2018-03-21T11:00:10.936Z,5.00
2018-03-21T11:01:10.855Z,8.60
2018-03-21T11:02:10.777Z,5.10
2018-03-21T11:03:10.700Z,6.00
2018-03-21T11:04:10.625Z,5.90
2018-03-21T11:05:10.549Z,5.30
2018-03-21T11:06:10.474Z,4.80
2018-03-21T11:07:10.392Z,5.00
2018-03-21T11:08:10.336Z,6.30
2018-03-21T11:09:10.238Z,5.70
2018-03-21T11:10:10.162Z,4.10
2018-03-21T11:11:10.087Z,4.50
2018-03-21T11:12:10.011Z,3.50
2018-03-21T11:13:09.935Z,5.70
2018-03-21T11:14:09.861Z,4.90
2018-03-21T11:15:09.790Z,4.00
2018-03-21T11:16:09.711Z,4.10
2018-03-21T11:17:09.636Z,4.90
2018-03-21T11:18:09.614Z,6.30
2018-03-21T11:19:09.491Z,6.80
2018-03-21T11:20:09.417Z,3.90
2018-03-21T11:21:09.342Z,4.80
2018-03-21T11:22:09.270Z,4.20
2018-03-21T11:23:09.197Z,4.50
2018-03-21T11:24:09.125Z,5.40
2018-03-21T11:25:09.052Z,5.90
2018-03-21T11:26:08.981Z,3.80
2018-03-21T11:27:08.908Z,3.80
2018-03-21T11:28:08.837Z,5.10
2018-03-21T11:29:08.764Z,5.20
2018-03-21T11:30:08.692Z,5.40
2018-03-21T11:31:08.621Z,4.70
2018-03-21T11:32:08.549Z,5.20
2018-03-21T11:33:08.478Z,3.80
2018-03-21T11:34:08.428Z,5.50
2018-03-21T11:35:08.337Z,7.60
2018-03-21T11:36:08.266Z,5.80
2018-03-21T11:37:08.194Z,6.00
2018-03-21T11:38:08.124Z,5.80
2018-03-21T11:39:08.054Z,5.10
2018-03-21T11:40:07.984Z,5.20
2018-03-21T11:41:07.913Z,3.70
2018-03-21T11:42:07.856Z,4.30
2018-03-21T11:43:07.772Z,5.20
2018-03-21T11:44:07.703Z,4.90
2018-03-21T11:45:07.636Z,5.00
2018-03-21T11:46:07.563Z,4.60
2018-03-21T11:47:07.494Z,3.60
2018-03-21T11:48:07.424Z,5.00
2018-03-21T11:49:07.354Z,4.90
2018-03-21T11:50:07.286Z,6.60
2018-03-21T11:51:07.223Z,4.70
2018-03-21T11:52:07.148Z,4.80
2018-03-21T11:53:07.081Z,5.70
2018-03-21T11:54:07.009Z,6.60
2018-03-21T11:55:06.941Z,3.30
2018-03-21T11:56:06.871Z,4.10
2018-03-21T11:57:06.803Z,6.30
2018-03-21T11:58:06.733Z,4.50
2018-03-21T11:59:06.665Z,4.90
2018-03-21T12:00:06.601Z,4.60
2018-03-21T12:01:06.527Z,11.90
2018-03-21T12:02:06.460Z,18.40
2018-03-21T12:03:06.391Z,5.70
2018-03-21T12:04:06.324Z,4.10
2018-03-21T12:05:06.253Z,4.40
2018-03-21T12:06:06.186Z,5.20
2018-03-21T12:07:06.123Z,6.60
2018-03-21T12:08:06.052Z,6.40
2018-03-21T12:09:05.984Z,4.90
2018-03-21T12:10:05.916Z,4.30
2018-03-21T12:11:05.848Z,5.20
2018-03-21T12:12:05.782Z,5.50
2018-03-21T12:13:05.714Z,7.40
2018-03-21T12:14:05.648Z,3.80
2018-03-21T12:15:05.579Z,4.20
2018-03-21T12:16:05.513Z,5.90
2018-03-21T12:17:05.444Z,24.70
2018-03-21T12:18:05.378Z,11.90
2018-03-21T12:19:05.316Z,3.70
2018-03-21T12:20:05.246Z,3.50
2018-03-21T12:21:05.179Z,2.80
2018-03-21T12:22:05.114Z,3.50
2018-03-21T12:23:05.046Z,4.20
2018-03-21T12:24:04.981Z,3.50
2018-03-21T12:25:04.915Z,3.00
2018-03-21T12:26:04.848Z,3.90
2018-03-21T12:27:04.784Z,7.40
2018-03-21T12:28:04.716Z,3.70
2018-03-21T12:29:04.648Z,3.70
2018-03-21T12:30:04.583Z,3.40
2018-03-21T12:31:04.517Z,5.00
2018-03-21T12:32:04.451Z,3.00
2018-03-21T12:33:04.385Z,7.30
2018-03-21T12:34:04.318Z,6.10
2018-03-21T12:35:04.253Z,9.50
2018-03-21T12:36:04.188Z,5.00
2018-03-21T12:37:04.120Z,2.70
2018-03-21T12:38:04.054Z,2.40
2018-03-21T12:39:03.989Z,3.20
2018-03-21T12:40:03.925Z,4.60
2018-03-21T12:41:03.856Z,4.10
2018-03-21T12:42:03.791Z,3.10
2018-03-21T12:43:03.726Z,3.10
2018-03-21T12:44:03.660Z,10.20
2018-03-21T12:45:03.594Z,8.40
2018-03-21T12:46:03.531Z,3.80
2018-03-21T12:47:03.463Z,4.40
2018-03-21T12:48:03.398Z,2.70
2018-03-21T12:49:03.332Z,3.10
2018-03-21T12:50:03.343Z,2.60
2018-03-21T12:51:03.206Z,2.70
2018-03-21T12:52:03.136Z,2.30
2018-03-21T12:53:03.071Z,2.80
2018-03-21T12:54:03.005Z,3.70
2018-03-21T12:55:02.940Z,1.80
2018-03-21T12:56:02.936Z,4.00
2018-03-21T12:57:02.810Z,2.10